createdAt,value
2018-06-12T00:02:14.298Z,19.00
2018-06-12T00:04:46.077Z,19.00
2018-06-12T00:07:17.694Z,19.00
2018-06-12T00:09:49.330Z,19.00
2018-06-12T00:12:20.992Z,19.00
2018-06-12T00:14:52.563Z,19.00
2018-06-12T00:17:24.115Z,19.00
2018-06-12T00:19:55.852Z,19.00
2018-06-12T00:22:27.509Z,19.00
2018-06-12T00:24:59.100Z,19.00
2018-06-12T00:27:30.916Z,19.00
2018-06-12T00:30:02.584Z,18.90
2018-06-12T00:32:34.134Z,19.00
2018-06-12T00:35:05.798Z,18.90
2018-06-12T00:37:37.374Z,19.00
2018-06-12T00:40:09.253Z,19.00
2018-06-12T00:42:41.173Z,19.00
2018-06-12T00:45:12.978Z,19.00
2018-06-12T00:47:44.692Z,19.00
2018-06-12T00:50:16.265Z,19.00
2018-06-12T00:52:47.919Z,19.00
2018-06-12T00:55:19.564Z,18.90
2018-06-12T00:57:51.101Z,18.90
2018-06-12T01:00:22.867Z,18.90
2018-06-12T01:02:54.453Z,18.90
2018-06-12T01:05:25.986Z,18.90
2018-06-12T01:07:57.631Z,18.80
2018-06-12T01:10:30.218Z,18.80
2018-06-12T01:13:01.865Z,18.90
2018-06-12T01:15:33.528Z,18.80
2018-06-12T01:18:05.109Z,18.80
2018-06-12T01:20:36.735Z,18.80
2018-06-12T01:23:08.389Z,18.80
2018-06-12T01:25:40.046Z,18.80
2018-06-12T01:28:11.705Z,18.80
2018-06-12T01:30:43.290Z,18.80
2018-06-12T01:33:15.087Z,18.80
2018-06-12T01:35:46.706Z,18.80
2018-06-12T01:38:18.534Z,18.80
2018-06-12T01:40:50.191Z,18.80
2018-06-12T01:43:21.772Z,18.70
2018-06-12T01:45:53.397Z,18.70
2018-06-12T01:48:25.068Z,18.70
2018-06-12T01:50:56.606Z,18.60
2018-06-12T01:53:28.369Z,18.50
2018-06-12T01:56:00.030Z,18.60
2018-06-12T01:58:31.690Z,18.50
2018-06-12T02:01:03.244Z,18.50
2018-06-12T02:03:35.026Z,18.50
2018-06-12T02:06:06.781Z,18.50
2018-06-12T02:08:38.477Z,18.40
2018-06-12T02:11:10.097Z,18.40
2018-06-12T02:13:41.779Z,18.30
2018-06-12T02:16:13.590Z,18.30
2018-06-12T02:18:45.176Z,18.20
2018-06-12T02:21:16.796Z,18.20
2018-06-12T02:26:19.590Z,18.10
2018-06-12T02:28:51.429Z,18.00
2018-06-12T02:31:23.321Z,18.00
2018-06-12T02:33:54.984Z,17.90
2018-06-12T02:36:27.003Z,17.90
2018-06-12T02:38:58.629Z,17.90
2018-06-12T02:41:30.729Z,17.90
2018-06-12T02:44:02.433Z,17.80
2018-06-12T02:46:34.138Z,17.70
2018-06-12T02:49:06.261Z,17.60
2018-06-12T02:51:38.048Z,17.60
2018-06-12T02:54:10.273Z,17.50
2018-06-12T02:56:41.833Z,17.50
2018-06-12T02:59:13.498Z,17.40
2018-06-12T03:01:45.142Z,17.40
2018-06-12T03:04:16.693Z,17.30
2018-06-12T03:06:48.441Z,17.30
2018-06-12T03:09:20.007Z,17.30
2018-06-12T03:11:51.572Z,17.20
2018-06-12T03:14:23.143Z,17.20
2018-06-12T03:16:54.836Z,17.20
2018-06-12T03:19:26.685Z,17.10
2018-06-12T03:21:58.310Z,17.10
2018-06-12T03:24:30.170Z,17.10
2018-06-12T03:27:01.685Z,17.10
2018-06-12T03:29:33.253Z,17.10
2018-06-12T03:32:05.129Z,17.00
2018-06-12T03:37:07.744Z,17.00
2018-06-12T03:39:39.266Z,17.00
2018-06-12T03:42:10.845Z,17.00
2018-06-12T03:44:42.517Z,17.00
2018-06-12T03:47:14.131Z,17.00
2018-06-12T03:49:45.796Z,17.00
2018-06-12T03:52:24.729Z,17.00
2018-06-12T03:54:56.401Z,17.00
2018-06-12T03:57:28.064Z,17.00
2018-06-12T03:59:59.642Z,17.00
2018-06-12T04:02:31.359Z,16.90
2018-06-12T04:05:02.938Z,16.90
2018-06-12T04:07:34.580Z,16.90
2018-06-12T04:10:06.209Z,16.80
2018-06-12T04:12:37.869Z,16.80
2018-06-12T04:17:40.496Z,16.90
2018-06-12T04:20:12.110Z,16.90
2018-06-12T04:22:43.779Z,16.90
2018-06-12T04:25:15.362Z,16.80
2018-06-12T04:27:47.093Z,16.80
2018-06-12T04:30:18.680Z,16.80
2018-06-12T04:32:50.406Z,16.80
2018-06-12T04:35:22.078Z,16.80
2018-06-12T04:37:53.648Z,16.80
2018-06-12T04:40:25.439Z,16.80
2018-06-12T04:42:57.147Z,16.80
2018-06-12T04:45:28.689Z,16.80
2018-06-12T04:48:00.454Z,16.90
2018-06-12T04:50:32.034Z,16.90
2018-06-12T04:53:03.663Z,16.90
2018-06-12T04:55:35.416Z,17.00
2018-06-12T04:58:07.080Z,17.00
2018-06-12T05:00:38.737Z,17.00
2018-06-12T05:03:10.290Z,17.10
2018-06-12T05:05:41.942Z,17.10
2018-06-12T05:08:13.598Z,17.00
2018-06-12T05:10:45.253Z,17.10
2018-06-12T05:13:16.909Z,17.20
2018-06-12T05:15:48.668Z,17.20
2018-06-12T05:18:20.239Z,17.30
2018-06-12T05:20:51.793Z,17.50
2018-06-12T05:23:23.329Z,17.50
2018-06-12T05:28:26.029Z,17.60
2018-06-12T05:30:57.623Z,17.60
2018-06-12T05:33:29.225Z,17.60
2018-06-12T05:36:00.998Z,17.60
2018-06-12T05:38:32.595Z,17.60
2018-06-12T05:41:04.225Z,17.60
2018-06-12T05:43:35.919Z,17.60
2018-06-12T05:46:07.552Z,17.50
2018-06-12T05:48:39.073Z,17.50
2018-06-12T05:51:10.738Z,17.50
2018-06-12T05:53:42.383Z,17.50
2018-06-12T05:56:14.040Z,17.50
2018-06-12T05:58:45.701Z,17.50
2018-06-12T06:01:17.282Z,17.50
2018-06-12T06:03:49.021Z,17.50
2018-06-12T06:06:20.654Z,17.50
2018-06-12T06:08:52.330Z,17.60
2018-06-12T06:11:23.922Z,17.70
2018-06-12T06:13:55.648Z,17.70
2018-06-12T06:16:27.233Z,17.80
2018-06-12T06:18:58.890Z,17.90
2018-06-12T06:21:30.517Z,17.90
2018-06-12T06:24:02.401Z,18.00
2018-06-12T06:26:34.081Z,18.10
2018-06-12T06:29:05.716Z,18.20
2018-06-12T06:31:37.331Z,18.40
2018-06-12T06:34:08.878Z,18.40
2018-06-12T06:36:40.560Z,18.50
2018-06-12T06:39:12.128Z,18.40
2018-06-12T07:08:27.064Z,19.20
2018-06-12T07:10:58.688Z,19.10
2018-06-12T07:13:30.417Z,19.20
2018-06-12T07:16:01.961Z,19.30
2018-06-12T07:18:33.625Z,19.40
2018-06-12T07:21:09.384Z,19.50
2018-06-12T07:23:41.037Z,19.60
2018-06-12T07:26:12.701Z,19.70
2018-06-12T07:28:44.272Z,19.70
2018-06-12T07:31:16.014Z,19.80
2018-06-12T07:33:47.561Z,19.80
2018-06-12T07:36:19.222Z,19.80
2018-06-12T07:38:50.761Z,19.80
2018-06-12T07:41:22.359Z,19.90
2018-06-12T07:43:54.093Z,19.90
2018-06-12T07:46:25.714Z,19.90
2018-06-12T07:48:57.299Z,19.90
2018-06-12T07:51:28.855Z,20.00
2018-06-12T07:54:00.517Z,19.90
2018-06-12T07:56:32.220Z,20.00
2018-06-12T07:59:04.025Z,19.90
2018-06-12T08:01:35.689Z,20.00
2018-06-12T08:04:07.245Z,20.10
2018-06-12T08:06:38.828Z,20.10
2018-06-12T08:09:10.554Z,20.10
2018-06-12T08:11:42.150Z,20.20
2018-06-12T08:14:13.793Z,20.10
2018-06-12T08:16:45.525Z,20.10
2018-06-12T08:19:17.120Z,20.00
2018-06-12T08:21:48.831Z,19.90
2018-06-12T08:24:20.549Z,19.90
2018-06-12T08:26:52.178Z,19.90
2018-06-12T08:29:23.903Z,19.70
2018-06-12T08:31:55.527Z,19.70
2018-06-12T08:34:27.133Z,19.60
2018-06-12T08:36:58.825Z,19.70
2018-06-12T08:39:30.421Z,19.70
2018-06-12T08:42:02.082Z,19.70
2018-06-12T08:44:33.624Z,19.70
2018-06-12T08:47:05.224Z,19.80
2018-06-12T08:49:36.953Z,19.80
2018-06-12T08:52:08.543Z,19.80
2018-06-12T08:54:40.260Z,19.70
2018-06-12T08:57:11.814Z,19.70
2018-06-12T08:59:43.472Z,19.80
2018-06-12T09:02:15.193Z,19.80
2018-06-12T09:04:46.782Z,19.80
2018-06-12T09:07:18.445Z,19.80
2018-06-12T09:09:49.988Z,19.90
2018-06-12T09:12:21.683Z,20.00
2018-06-12T09:14:53.372Z,20.20
2018-06-12T09:17:25.067Z,20.60
2018-06-12T09:19:56.747Z,20.90
2018-06-12T09:22:28.438Z,21.00
2018-06-12T09:25:00.054Z,21.10
2018-06-12T09:27:35.789Z,21.10
2018-06-12T09:30:07.467Z,21.10
2018-06-12T09:32:38.991Z,21.20
2018-06-12T09:35:10.664Z,21.30
2018-06-12T09:37:42.317Z,21.30
2018-06-12T09:40:13.866Z,21.30
2018-06-12T09:42:45.536Z,21.30
2018-06-12T09:45:17.389Z,21.40
2018-06-12T09:47:48.969Z,21.60
2018-06-12T09:50:20.521Z,21.70
2018-06-12T09:52:52.145Z,21.90
2018-06-12T09:55:23.808Z,22.00
2018-06-12T09:57:55.386Z,22.10
2018-06-12T10:00:32.137Z,22.20
2018-06-12T10:03:03.795Z,22.30
2018-06-12T10:05:35.661Z,22.30
2018-06-12T10:08:07.416Z,22.30
2018-06-12T10:10:38.970Z,22.30
2018-06-12T10:13:10.521Z,22.20
2018-06-12T10:15:42.181Z,22.30
2018-06-12T10:18:13.833Z,22.40
2018-06-12T10:20:45.411Z,22.50
2018-06-12T10:23:16.967Z,22.70
2018-06-12T10:25:48.605Z,22.90
2018-06-12T10:28:20.169Z,23.10
2018-06-12T10:30:51.911Z,23.30
2018-06-12T10:33:23.609Z,23.30
2018-06-12T10:35:55.434Z,23.30
2018-06-12T10:38:27.030Z,23.50
2018-06-12T10:40:58.741Z,23.60
2018-06-12T10:43:30.504Z,23.70
2018-06-12T10:46:02.261Z,23.80
2018-06-12T10:48:33.976Z,23.70
2018-06-12T10:51:05.626Z,23.60
2018-06-12T10:53:37.339Z,23.50
2018-06-12T10:56:08.999Z,23.50
2018-06-12T10:58:40.644Z,23.50
2018-06-12T11:01:12.153Z,23.50
2018-06-12T11:03:43.810Z,23.50
2018-06-12T11:06:15.444Z,23.40
2018-06-12T11:08:47.070Z,23.40
2018-06-12T11:11:18.649Z,23.30
2018-06-12T11:13:50.280Z,23.30
2018-06-12T11:16:21.940Z,23.30
2018-06-12T11:18:53.587Z,23.50
2018-06-12T11:21:25.124Z,23.70
2018-06-12T11:23:56.856Z,24.00
2018-06-12T11:26:28.471Z,24.20
2018-06-12T11:29:00.110Z,24.10
2018-06-12T11:31:31.812Z,23.90
2018-06-12T11:34:03.541Z,23.80
2018-06-12T11:36:35.187Z,23.70
2018-06-12T11:39:08.455Z,23.60
2018-06-12T11:41:40.063Z,23.60
2018-06-12T11:44:11.688Z,23.80
2018-06-12T11:46:43.225Z,24.00
2018-06-12T11:49:14.893Z,24.30
2018-06-12T11:51:46.463Z,24.40
2018-06-12T11:54:18.111Z,24.40
2018-06-12T11:56:49.766Z,24.20
2018-06-12T11:59:21.444Z,24.10
2018-06-12T12:01:53.080Z,24.20
2018-06-12T12:04:24.775Z,24.30
2018-06-12T12:06:56.607Z,24.40
2018-06-12T12:09:28.144Z,24.30
2018-06-12T12:11:59.909Z,24.30
2018-06-12T12:14:31.565Z,24.20
2018-06-12T12:17:03.272Z,24.00
2018-06-12T12:19:35.038Z,23.80
2018-06-12T12:22:06.842Z,23.50
2018-06-12T12:24:38.501Z,23.30
2018-06-12T12:27:10.212Z,23.20
2018-06-12T12:29:41.810Z,23.10
2018-06-12T12:32:13.469Z,23.00
2018-06-12T12:34:45.022Z,23.00
2018-06-12T12:37:16.578Z,22.90
2018-06-12T12:39:48.121Z,22.90
2018-06-12T12:42:19.716Z,23.00
2018-06-12T12:44:51.333Z,23.10
2018-06-12T12:47:23.033Z,23.20
2018-06-12T12:49:54.761Z,23.20
2018-06-12T12:52:26.412Z,23.20
2018-06-12T12:54:58.113Z,23.20
2018-06-12T12:57:29.781Z,23.20
2018-06-12T13:00:01.372Z,23.20
2018-06-12T13:02:32.919Z,23.10
2018-06-12T13:05:04.802Z,23.00
2018-06-12T13:07:36.297Z,23.00
2018-06-12T13:10:08.040Z,23.10
2018-06-12T13:12:39.765Z,23.10
2018-06-12T13:15:11.423Z,23.10
2018-06-12T13:17:42.957Z,23.10
2018-06-12T13:20:14.664Z,23.10
2018-06-12T13:22:46.248Z,23.20
2018-06-12T13:25:17.954Z,23.20
2018-06-12T13:27:49.445Z,23.20
2018-06-12T13:30:21.062Z,23.20
2018-06-12T13:32:52.557Z,23.10
2018-06-12T13:35:24.189Z,23.20
2018-06-12T13:37:55.924Z,23.20
2018-06-12T13:40:27.476Z,23.20
2018-06-12T13:42:59.176Z,23.30
2018-06-12T13:45:30.956Z,23.20
2018-06-12T13:48:02.545Z,23.30
2018-06-12T13:50:34.209Z,23.50
2018-06-12T13:53:05.880Z,23.50
2018-06-12T13:55:37.448Z,23.60
2018-06-12T13:58:09.174Z,23.70
2018-06-12T14:00:40.722Z,23.70
2018-06-12T14:03:12.345Z,23.70
2018-06-12T14:05:44.049Z,23.70
2018-06-12T14:08:15.548Z,23.70
2018-06-12T14:10:47.308Z,23.80
2018-06-12T14:13:18.961Z,23.80
2018-06-12T14:15:50.726Z,23.90
2018-06-12T14:18:22.278Z,23.80
2018-06-12T14:20:53.976Z,23.60
2018-06-12T14:23:25.485Z,23.60
2018-06-12T14:25:57.084Z,23.70
2018-06-12T14:28:28.593Z,23.70
2018-06-12T14:31:00.225Z,23.70
2018-06-12T14:33:31.816Z,23.80
2018-06-12T14:36:03.441Z,23.70
2018-06-12T14:38:35.164Z,23.50
2018-06-12T14:41:06.712Z,23.40
2018-06-12T14:43:38.386Z,23.40
2018-06-12T14:46:09.959Z,23.50
2018-06-12T14:48:41.590Z,23.60
2018-06-12T14:51:13.165Z,23.60
2018-06-12T14:53:44.897Z,23.60
2018-06-12T14:56:16.553Z,23.60
2018-06-12T14:58:48.123Z,23.60
2018-06-12T15:01:19.821Z,23.50
2018-06-12T15:03:51.421Z,23.50
2018-06-12T15:08:54.051Z,23.30
2018-06-12T15:11:25.782Z,23.30
2018-06-12T15:13:57.353Z,23.20
2018-06-12T15:19:00.762Z,22.90
2018-06-12T15:21:32.400Z,22.70
2018-06-12T15:24:03.958Z,22.60
2018-06-12T15:26:35.542Z,22.40
2018-06-12T15:29:07.166Z,22.30
2018-06-12T15:31:38.755Z,22.20
2018-06-12T15:34:10.443Z,22.10
2018-06-12T15:36:42.029Z,22.10
2018-06-12T15:39:13.609Z,22.10
2018-06-12T15:41:45.232Z,22.00
2018-06-12T15:44:16.895Z,21.90
2018-06-12T15:46:48.566Z,22.00
2018-06-12T15:49:20.142Z,21.90
2018-06-12T15:51:51.875Z,21.90
2018-06-12T15:54:23.526Z,21.80
2018-06-12T15:56:55.108Z,21.80
2018-06-12T15:59:26.802Z,21.70
2018-06-12T16:01:58.387Z,21.70
2018-06-12T16:04:30.059Z,21.60
2018-06-12T16:07:01.701Z,21.70
2018-06-12T16:09:33.288Z,21.60
2018-06-12T16:12:04.821Z,21.60
2018-06-12T16:14:36.476Z,21.70
2018-06-12T16:17:08.177Z,21.70
2018-06-12T16:19:39.776Z,21.80
2018-06-12T16:22:11.448Z,21.90
2018-06-12T16:24:43.097Z,22.00
2018-06-12T16:27:14.675Z,22.00
2018-06-12T16:29:46.207Z,22.00
2018-06-12T16:32:17.782Z,22.00
2018-06-12T16:34:49.320Z,22.00
2018-06-12T16:37:20.978Z,21.90
2018-06-12T16:39:52.525Z,21.90
2018-06-12T16:42:24.114Z,21.90
2018-06-12T16:44:55.833Z,21.80
2018-06-12T16:47:27.422Z,21.80
2018-06-12T16:49:59.251Z,21.80
2018-06-12T16:52:30.860Z,21.70
2018-06-12T16:55:02.492Z,21.60
2018-06-12T16:57:34.133Z,21.60
2018-06-12T17:00:05.970Z,21.50
2018-06-12T17:02:37.641Z,21.50
2018-06-12T17:05:09.313Z,21.50
2018-06-12T17:07:40.964Z,21.50
2018-06-12T17:10:12.541Z,21.50
2018-06-12T17:12:44.268Z,21.40
2018-06-12T17:15:15.917Z,21.40
2018-06-12T17:17:47.499Z,21.30
2018-06-12T17:20:19.022Z,21.30
2018-06-12T17:22:50.609Z,21.30
2018-06-12T17:25:22.242Z,21.30
2018-06-12T17:27:53.817Z,21.20
2018-06-12T17:30:25.344Z,21.20
2018-06-12T17:32:57.014Z,21.20
2018-06-12T17:35:28.766Z,21.10
2018-06-12T17:38:00.425Z,21.10
2018-06-12T17:40:31.956Z,21.10
2018-06-12T17:43:03.633Z,21.10
2018-06-12T17:45:35.203Z,21.10
2018-06-12T17:48:06.836Z,21.00
2018-06-12T17:50:38.696Z,20.90
2018-06-12T17:53:10.361Z,20.80
2018-06-12T17:55:42.014Z,20.80
2018-06-12T17:58:13.561Z,20.70
2018-06-12T18:00:45.114Z,20.60
2018-06-12T18:03:16.715Z,20.50
2018-06-12T18:05:48.498Z,20.50
2018-06-12T18:08:20.121Z,20.40
2018-06-12T18:10:51.831Z,20.30
2018-06-12T18:13:23.638Z,20.30
2018-06-12T18:15:55.420Z,20.20
2018-06-12T18:18:27.135Z,20.20
2018-06-12T18:20:58.710Z,20.10
2018-06-12T18:23:30.745Z,20.10
2018-06-12T18:26:02.333Z,20.00
2018-06-12T18:28:34.120Z,20.00
2018-06-12T18:31:05.748Z,19.90
2018-06-12T18:33:37.405Z,19.80
2018-06-12T18:36:09.244Z,19.80
2018-06-12T18:38:40.777Z,19.80
2018-06-12T18:41:12.346Z,19.70
2018-06-12T18:43:43.921Z,19.70
2018-06-12T18:46:15.855Z,19.60
2018-06-12T18:48:47.525Z,19.60
2018-06-12T18:51:19.178Z,19.50
2018-06-12T18:53:50.890Z,19.40
2018-06-12T18:56:22.488Z,19.40
2018-06-12T18:58:54.205Z,19.30
2018-06-12T19:01:25.833Z,19.30
2018-06-12T19:03:57.569Z,19.30
2018-06-12T19:06:29.290Z,19.20
2018-06-12T19:09:00.978Z,19.20
2018-06-12T19:11:32.557Z,19.20
2018-06-12T19:14:04.386Z,19.10
2018-06-12T19:16:36.043Z,19.10
2018-06-12T19:19:07.641Z,19.10
2018-06-12T19:21:39.397Z,19.10
2018-06-12T19:24:11.042Z,19.10
2018-06-12T19:26:42.694Z,19.10
2018-06-12T19:29:14.342Z,19.00
2018-06-12T19:31:45.912Z,19.00
2018-06-12T19:34:17.533Z,19.00
2018-06-12T19:36:49.194Z,19.00
2018-06-12T19:39:20.788Z,18.90
2018-06-12T19:41:52.405Z,18.90
2018-06-12T19:44:23.961Z,18.90
2018-06-12T19:46:55.627Z,18.90
2018-06-12T19:49:27.329Z,18.80
2018-06-12T19:51:58.925Z,18.80
2018-06-12T19:54:30.629Z,18.80
2018-06-12T19:57:02.369Z,18.80
2018-06-12T19:59:34.100Z,18.80
2018-06-12T20:02:05.769Z,18.80
2018-06-12T20:04:37.417Z,18.70
2018-06-12T20:07:08.873Z,18.70
2018-06-12T20:09:40.425Z,18.60
2018-06-12T20:12:12.077Z,18.60
2018-06-12T20:14:43.643Z,18.60
2018-06-12T20:17:15.165Z,18.60
2018-06-12T20:19:46.911Z,18.60
2018-06-12T20:22:18.607Z,18.60
2018-06-12T20:24:50.243Z,18.60
2018-06-12T20:27:21.829Z,18.70
2018-06-12T20:29:53.364Z,18.70
2018-06-12T20:32:25.688Z,18.60
2018-06-12T20:34:57.325Z,18.60
2018-06-12T20:37:28.942Z,18.60
2018-06-12T20:40:00.707Z,18.60
2018-06-12T20:42:32.281Z,18.60
2018-06-12T20:45:03.878Z,18.60
2018-06-12T20:47:35.469Z,18.60
2018-06-12T20:50:07.059Z,18.60
2018-06-12T20:52:38.809Z,18.60
2018-06-12T20:55:10.573Z,18.60
2018-06-12T20:57:42.366Z,18.60
2018-06-12T21:00:13.971Z,18.50
2018-06-12T21:02:45.714Z,18.50
2018-06-12T21:05:17.369Z,18.50
2018-06-12T21:07:49.185Z,18.50
2018-06-12T21:10:20.820Z,18.50
2018-06-12T21:12:52.437Z,18.40
2018-06-12T21:15:24.001Z,18.40
2018-06-12T21:17:55.706Z,18.40
2018-06-12T21:20:27.421Z,18.40
2018-06-12T21:22:59.069Z,18.40
2018-06-12T21:25:30.622Z,18.40
2018-06-12T21:28:02.345Z,18.40
2018-06-12T21:30:34.044Z,18.40
2018-06-12T21:33:05.622Z,18.30
2018-06-12T21:35:37.349Z,18.30
2018-06-12T21:38:08.892Z,18.30
2018-06-12T21:40:40.561Z,18.30
2018-06-12T21:43:12.286Z,18.30
2018-06-12T21:45:43.868Z,18.20
2018-06-12T21:48:15.416Z,18.20
2018-06-12T21:50:47.093Z,18.20
2018-06-12T21:53:18.751Z,18.20
2018-06-12T21:55:50.329Z,18.10
2018-06-12T21:58:22.049Z,18.10
2018-06-12T22:00:53.709Z,18.10
2018-06-12T22:03:25.362Z,18.00
2018-06-12T22:05:57.129Z,18.00
2018-06-12T22:08:28.702Z,18.00
2018-06-12T22:11:00.341Z,18.00
2018-06-12T22:13:31.889Z,18.00
2018-06-12T22:16:03.469Z,18.00
2018-06-12T22:18:35.101Z,18.00
2018-06-12T22:21:06.769Z,17.90
2018-06-12T22:23:38.413Z,17.90
2018-06-12T22:26:09.997Z,17.90
2018-06-12T22:28:41.730Z,17.80
2018-06-12T22:31:13.283Z,17.70
2018-06-12T22:33:44.931Z,17.70
2018-06-12T22:36:16.521Z,17.70
2018-06-12T22:38:48.211Z,17.70
2018-06-12T22:41:19.794Z,17.70
2018-06-12T22:43:51.376Z,17.70
2018-06-12T22:46:23.072Z,17.60
2018-06-12T22:48:54.905Z,17.60
2018-06-12T22:51:26.649Z,17.60
2018-06-12T22:53:58.284Z,17.60
2018-06-12T22:56:29.880Z,17.50
2018-06-12T22:59:01.674Z,17.50
2018-06-12T23:01:33.262Z,17.50
2018-06-12T23:04:04.917Z,17.50
2018-06-12T23:06:36.728Z,17.50
2018-06-12T23:09:10.036Z,17.40
2018-06-12T23:11:41.881Z,17.40
2018-06-12T23:14:13.695Z,17.40
2018-06-12T23:16:45.458Z,17.40
2018-06-12T23:19:17.008Z,17.30
2018-06-12T23:24:33.072Z,17.30
2018-06-12T23:27:04.738Z,17.30
2018-06-12T23:29:36.443Z,17.20
2018-06-12T23:32:08.013Z,17.30
2018-06-12T23:34:39.643Z,17.20
2018-06-12T23:37:11.195Z,17.20
2018-06-12T23:39:42.859Z,17.20
2018-06-12T23:42:14.401Z,17.20
2018-06-12T23:44:46.009Z,17.20
2018-06-12T23:47:17.729Z,17.20
2018-06-12T23:52:20.468Z,17.10
2018-06-12T23:54:52.130Z,17.20
2018-06-12T23:57:23.936Z,17.10
2018-06-12T23:59:55.438Z,17.10
